sensor_id;sensor_type;location;lat;lon;timestamp;P1;durP1;ratioP1;P2;durP2;ratioP2
57319;SDS011;43158;51.026;18.190;2023-05-10T00:00:41;6.70;;;5.80;;
57319;SDS011;43158;51.026;18.190;2023-05-10T00:03:07;10.90;;;5.80;;
57319;SDS011;43158;51.026;18.190;2023-05-10T00:05:34;7.40;;;5.60;;
57319;SDS011;43158;51.026;18.190;2023-05-10T00:08:00;7.80;;;6.50;;
57319;SDS011;43158;51.026;18.190;2023-05-10T00:10:26;9.60;;;6.60;;
57319;SDS011;43158;51.026;18.190;2023-05-10T00:12:53;6.50;;;5.90;;
57319;SDS011;43158;51.026;18.190;2023-05-10T00:15:19;10.30;;;6.50;;
57319;SDS011;43158;51.026;18.190;2023-05-10T00:17:45;9.20;;;6.50;;
57319;SDS011;43158;51.026;18.190;2023-05-10T00:20:12;8.20;;;6.40;;
57319;SDS011;43158;51.026;18.190;2023-05-10T00:22:38;7.20;;;6.50;;
57319;SDS011;43158;51.026;18.190;2023-05-10T00:25:05;10.00;;;7.00;;
57319;SDS011;43158;51.026;18.190;2023-05-10T00:27:32;7.60;;;6.90;;
57319;SDS011;43158;51.026;18.190;2023-05-10T00:29:59;8.00;;;6.50;;
57319;SDS011;43158;51.026;18.190;2023-05-10T00:32:25;8.40;;;5.90;;
57319;SDS011;43158;51.026;18.190;2023-05-10T00:34:52;6.80;;;5.00;;
57319;SDS011;43158;51.026;18.190;2023-05-10T00:37:18;6.70;;;5.40;;
57319;SDS011;43158;51.026;18.190;2023-05-10T00:39:45;25.20;;;17.50;;
57319;SDS011;43158;51.026;18.190;2023-05-10T00:42:12;10.70;;;6.20;;
57319;SDS011;43158;51.026;18.190;2023-05-10T00:44:38;7.10;;;6.40;;
57319;SDS011;43158;51.026;18.190;2023-05-10T00:47:05;10.30;;;7.00;;
57319;SDS011;43158;51.026;18.190;2023-05-10T00:49:31;7.80;;;6.40;;
57319;SDS011;43158;51.026;18.190;2023-05-10T00:51:58;7.90;;;6.60;;
57319;SDS011;43158;51.026;18.190;2023-05-10T00:54:25;9.30;;;6.80;;
57319;SDS011;43158;51.026;18.190;2023-05-10T00:56:52;8.70;;;7.00;;
57319;SDS011;43158;51.026;18.190;2023-05-10T00:59:18;8.40;;;7.30;;
57319;SDS011;43158;51.026;18.190;2023-05-10T01:01:45;10.60;;;7.50;;
57319;SDS011;43158;51.026;18.190;2023-05-10T01:04:12;9.40;;;7.50;;
57319;SDS011;43158;51.026;18.190;2023-05-10T01:06:40;8.70;;;7.40;;
57319;SDS011;43158;51.026;18.190;2023-05-10T01:09:07;7.20;;;6.50;;
57319;SDS011;43158;51.026;18.190;2023-05-10T01:11:37;9.00;;;6.90;;
57319;SDS011;43158;51.026;18.190;2023-05-10T01:14:04;8.80;;;6.10;;
57319;SDS011;43158;51.026;18.190;2023-05-10T01:16:32;6.60;;;5.50;;
57319;SDS011;43158;51.026;18.190;2023-05-10T01:19:01;7.80;;;5.90;;
57319;SDS011;43158;51.026;18.190;2023-05-10T01:21:48;11.90;;;7.40;;
57319;SDS011;43158;51.026;18.190;2023-05-10T01:38:17;8.20;;;7.30;;
57319;SDS011;43158;51.026;18.190;2023-05-10T01:40:52;8.00;;;7.20;;
57319;SDS011;43158;51.026;18.190;2023-05-10T01:43:39;11.10;;;7.40;;
57319;SDS011;43158;51.026;18.190;2023-05-10T01:46:23;8.50;;;6.90;;
57319;SDS011;43158;51.026;18.190;2023-05-10T01:48:54;10.90;;;6.00;;
57319;SDS011;43158;51.026;18.190;2023-05-10T01:51:23;7.90;;;6.20;;
57319;SDS011;43158;51.026;18.190;2023-05-10T01:53:51;6.90;;;5.70;;
57319;SDS011;43158;51.026;18.190;2023-05-10T01:56:25;8.90;;;6.40;;
57319;SDS011;43158;51.026;18.190;2023-05-10T01:58:52;7.60;;;5.00;;
57319;SDS011;43158;51.026;18.190;2023-05-10T02:01:19;8.70;;;6.50;;
57319;SDS011;43158;51.026;18.190;2023-05-10T02:03:46;6.70;;;5.80;;
57319;SDS011;43158;51.026;18.190;2023-05-10T02:06:14;8.10;;;6.30;;
57319;SDS011;43158;51.026;18.190;2023-05-10T02:08:40;7.00;;;6.10;;
57319;SDS011;43158;51.026;18.190;2023-05-10T02:11:07;8.30;;;6.30;;
57319;SDS011;43158;51.026;18.190;2023-05-10T02:13:33;9.10;;;5.90;;
57319;SDS011;43158;51.026;18.190;2023-05-10T02:16:01;7.70;;;7.00;;
57319;SDS011;43158;51.026;18.190;2023-05-10T02:18:27;7.80;;;6.10;;
57319;SDS011;43158;51.026;18.190;2023-05-10T02:20:54;9.10;;;5.90;;
57319;SDS011;43158;51.026;18.190;2023-05-10T02:23:20;26.40;;;18.30;;
57319;SDS011;43158;51.026;18.190;2023-05-10T02:25:47;11.80;;;8.00;;
57319;SDS011;43158;51.026;18.190;2023-05-10T02:28:14;6.00;;;5.30;;
57319;SDS011;43158;51.026;18.190;2023-05-10T02:30:42;8.80;;;5.50;;
57319;SDS011;43158;51.026;18.190;2023-05-10T02:33:09;7.20;;;6.00;;
57319;SDS011;43158;51.026;18.190;2023-05-10T02:35:35;7.50;;;6.10;;
57319;SDS011;43158;51.026;18.190;2023-05-10T02:38:02;8.30;;;6.90;;
57319;SDS011;43158;51.026;18.190;2023-05-10T02:40:29;6.90;;;5.90;;
57319;SDS011;43158;51.026;18.190;2023-05-10T02:42:56;7.70;;;6.40;;
57319;SDS011;43158;51.026;18.190;2023-05-10T02:45:23;7.30;;;6.60;;
57319;SDS011;43158;51.026;18.190;2023-05-10T02:47:52;9.50;;;6.60;;
57319;SDS011;43158;51.026;18.190;2023-05-10T02:50:18;10.10;;;5.90;;
57319;SDS011;43158;51.026;18.190;2023-05-10T02:52:46;6.80;;;5.90;;
57319;SDS011;43158;51.026;18.190;2023-05-10T02:55:15;6.60;;;5.10;;
57319;SDS011;43158;51.026;18.190;2023-05-10T02:57:45;7.30;;;6.60;;
57319;SDS011;43158;51.026;18.190;2023-05-10T03:00:14;9.20;;;6.70;;
57319;SDS011;43158;51.026;18.190;2023-05-10T03:02:41;8.10;;;7.30;;
57319;SDS011;43158;51.026;18.190;2023-05-10T03:05:07;8.40;;;7.50;;
57319;SDS011;43158;51.026;18.190;2023-05-10T03:07:34;8.10;;;7.30;;
57319;SDS011;43158;51.026;18.190;2023-05-10T03:10:00;7.80;;;7.10;;
57319;SDS011;43158;51.026;18.190;2023-05-10T03:15:32;8.20;;;5.70;;
57319;SDS011;43158;51.026;18.190;2023-05-10T03:18:10;6.50;;;5.60;;
57319;SDS011;43158;51.026;18.190;2023-05-10T03:20:43;8.30;;;5.60;;
57319;SDS011;43158;51.026;18.190;2023-05-10T03:23:19;7.10;;;5.50;;
57319;SDS011;43158;51.026;18.190;2023-05-10T03:25:47;8.00;;;5.60;;
57319;SDS011;43158;51.026;18.190;2023-05-10T03:28:14;8.20;;;7.10;;
57319;SDS011;43158;51.026;18.190;2023-05-10T03:30:42;9.50;;;6.40;;
57319;SDS011;43158;51.026;18.190;2023-05-10T03:33:08;7.70;;;6.40;;
57319;SDS011;43158;51.026;18.190;2023-05-10T03:35:34;9.70;;;6.90;;
57319;SDS011;43158;51.026;18.190;2023-05-10T03:38:00;7.90;;;6.20;;
57319;SDS011;43158;51.026;18.190;2023-05-10T03:40:27;11.00;;;8.70;;
57319;SDS011;43158;51.026;18.190;2023-05-10T03:42:57;10.40;;;6.00;;
57319;SDS011;43158;51.026;18.190;2023-05-10T03:45:24;10.20;;;7.30;;
57319;SDS011;43158;51.026;18.190;2023-05-10T03:47:50;11.80;;;6.10;;
57319;SDS011;43158;51.026;18.190;2023-05-10T03:50:17;5.60;;;5.10;;
57319;SDS011;43158;51.026;18.190;2023-05-10T03:52:44;6.60;;;5.40;;
57319;SDS011;43158;51.026;18.190;2023-05-10T03:55:10;8.50;;;5.10;;
57319;SDS011;43158;51.026;18.190;2023-05-10T03:57:37;7.40;;;6.30;;
57319;SDS011;43158;51.026;18.190;2023-05-10T04:00:03;12.70;;;6.10;;
57319;SDS011;43158;51.026;18.190;2023-05-10T04:02:30;8.10;;;6.50;;
57319;SDS011;43158;51.026;18.190;2023-05-10T04:04:57;10.00;;;6.40;;
57319;SDS011;43158;51.026;18.190;2023-05-10T04:07:23;8.20;;;6.20;;
57319;SDS011;43158;51.026;18.190;2023-05-10T04:09:49;5.80;;;5.00;;
57319;SDS011;43158;51.026;18.190;2023-05-10T04:12:16;8.00;;;6.00;;
57319;SDS011;43158;51.026;18.190;2023-05-10T04:14:42;6.30;;;5.30;;
57319;SDS011;43158;51.026;18.190;2023-05-10T04:17:08;6.60;;;5.00;;
57319;SDS011;43158;51.026;18.190;2023-05-10T04:19:35;7.20;;;4.90;;
57319;SDS011;43158;51.026;18.190;2023-05-10T04:22:02;6.70;;;6.00;;
57319;SDS011;43158;51.026;18.190;2023-05-10T04:24:29;7.00;;;5.80;;
57319;SDS011;43158;51.026;18.190;2023-05-10T04:26:55;6.80;;;5.60;;
57319;SDS011;43158;51.026;18.190;2023-05-10T04:29:21;6.70;;;6.10;;
57319;SDS011;43158;51.026;18.190;2023-05-10T04:31:47;6.70;;;5.90;;
57319;SDS011;43158;51.026;18.190;2023-05-10T04:34:14;7.30;;;6.60;;
57319;SDS011;43158;51.026;18.190;2023-05-10T04:36:40;6.70;;;5.10;;
57319;SDS011;43158;51.026;18.190;2023-05-10T04:39:07;6.70;;;6.00;;
57319;SDS011;43158;51.026;18.190;2023-05-10T04:41:35;8.20;;;5.90;;
57319;SDS011;43158;51.026;18.190;2023-05-10T04:44:01;7.30;;;5.80;;
57319;SDS011;43158;51.026;18.190;2023-05-10T04:46:27;9.00;;;6.60;;
57319;SDS011;43158;51.026;18.190;2023-05-10T04:48:53;8.30;;;5.40;;
57319;SDS011;43158;51.026;18.190;2023-05-10T04:51:19;6.10;;;5.30;;
57319;SDS011;43158;51.026;18.190;2023-05-10T04:53:46;6.40;;;5.80;;
57319;SDS011;43158;51.026;18.190;2023-05-10T04:56:12;6.80;;;6.10;;
57319;SDS011;43158;51.026;18.190;2023-05-10T04:58:38;10.90;;;6.60;;
57319;SDS011;43158;51.026;18.190;2023-05-10T05:01:05;6.90;;;5.30;;
57319;SDS011;43158;51.026;18.190;2023-05-10T05:03:34;5.80;;;5.20;;
57319;SDS011;43158;51.026;18.190;2023-05-10T05:06:00;5.80;;;4.90;;
57319;SDS011;43158;51.026;18.190;2023-05-10T05:08:26;6.60;;;6.00;;
57319;SDS011;43158;51.026;18.190;2023-05-10T05:10:53;11.10;;;6.10;;
57319;SDS011;43158;51.026;18.190;2023-05-10T05:13:20;7.40;;;5.80;;
57319;SDS011;43158;51.026;18.190;2023-05-10T05:15:46;6.60;;;5.50;;
57319;SDS011;43158;51.026;18.190;2023-05-10T05:18:12;6.60;;;5.40;;
57319;SDS011;43158;51.026;18.190;2023-05-10T05:20:39;6.30;;;5.70;;
57319;SDS011;43158;51.026;18.190;2023-05-10T05:23:06;6.40;;;5.70;;
57319;SDS011;43158;51.026;18.190;2023-05-10T05:25:33;7.30;;;5.90;;
57319;SDS011;43158;51.026;18.190;2023-05-10T05:28:09;5.40;;;4.80;;
57319;SDS011;43158;51.026;18.190;2023-05-10T05:30:35;5.70;;;5.00;;
57319;SDS011;43158;51.026;18.190;2023-05-10T05:33:01;5.60;;;5.10;;
57319;SDS011;43158;51.026;18.190;2023-05-10T05:35:28;6.40;;;5.10;;
57319;SDS011;43158;51.026;18.190;2023-05-10T05:37:54;7.50;;;5.20;;
57319;SDS011;43158;51.026;18.190;2023-05-10T05:40:21;5.90;;;5.20;;
57319;SDS011;43158;51.026;18.190;2023-05-10T05:42:47;7.10;;;5.30;;
57319;SDS011;43158;51.026;18.190;2023-05-10T05:45:14;5.70;;;5.00;;
57319;SDS011;43158;51.026;18.190;2023-05-10T05:47:40;10.10;;;5.40;;
57319;SDS011;43158;51.026;18.190;2023-05-10T05:50:07;6.20;;;4.50;;
57319;SDS011;43158;51.026;18.190;2023-05-10T05:52:34;5.30;;;4.80;;
57319;SDS011;43158;51.026;18.190;2023-05-10T05:55:00;7.50;;;4.30;;
57319;SDS011;43158;51.026;18.190;2023-05-10T05:57:26;6.00;;;4.90;;
57319;SDS011;43158;51.026;18.190;2023-05-10T05:59:52;5.00;;;4.60;;
57319;SDS011;43158;51.026;18.190;2023-05-10T06:02:18;5.40;;;4.50;;
57319;SDS011;43158;51.026;18.190;2023-05-10T06:04:44;6.20;;;4.50;;
57319;SDS011;43158;51.026;18.190;2023-05-10T06:07:11;5.30;;;4.50;;
57319;SDS011;43158;51.026;18.190;2023-05-10T06:09:38;6.30;;;4.90;;
57319;SDS011;43158;51.026;18.190;2023-05-10T06:12:04;5.10;;;4.60;;
57319;SDS011;43158;51.026;18.190;2023-05-10T06:14:30;5.60;;;4.70;;
57319;SDS011;43158;51.026;18.190;2023-05-10T06:16:57;8.10;;;4.90;;
57319;SDS011;43158;51.026;18.190;2023-05-10T06:19:24;7.30;;;5.20;;
57319;SDS011;43158;51.026;18.190;2023-05-10T06:21:51;5.70;;;4.00;;
57319;SDS011;43158;51.026;18.190;2023-05-10T06:24:17;4.50;;;3.30;;
57319;SDS011;43158;51.026;18.190;2023-05-10T06:26:44;3.90;;;3.40;;
57319;SDS011;43158;51.026;18.190;2023-05-10T06:29:11;3.80;;;3.40;;
57319;SDS011;43158;51.026;18.190;2023-05-10T06:31:37;4.20;;;3.60;;
57319;SDS011;43158;51.026;18.190;2023-05-10T06:34:05;4.50;;;3.50;;
57319;SDS011;43158;51.026;18.190;2023-05-10T06:36:33;5.10;;;4.00;;
57319;SDS011;43158;51.026;18.190;2023-05-10T06:39:00;4.90;;;3.50;;
57319;SDS011;43158;51.026;18.190;2023-05-10T06:41:28;4.20;;;3.00;;
57319;SDS011;43158;51.026;18.190;2023-05-10T06:43:54;7.50;;;6.50;;
57319;SDS011;43158;51.026;18.190;2023-05-10T06:46:21;5.50;;;2.80;;
57319;SDS011;43158;51.026;18.190;2023-05-10T06:48:48;5.90;;;3.00;;
57319;SDS011;43158;51.026;18.190;2023-05-10T06:51:15;3.80;;;2.70;;
57319;SDS011;43158;51.026;18.190;2023-05-10T06:53:41;3.30;;;3.00;;
57319;SDS011;43158;51.026;18.190;2023-05-10T06:56:10;3.40;;;2.80;;
57319;SDS011;43158;51.026;18.190;2023-05-10T06:58:37;2.70;;;2.40;;
57319;SDS011;43158;51.026;18.190;2023-05-10T07:01:04;4.90;;;3.40;;
57319;SDS011;43158;51.026;18.190;2023-05-10T07:03:31;4.40;;;2.50;;
57319;SDS011;43158;51.026;18.190;2023-05-10T07:06:02;3.10;;;2.70;;
57319;SDS011;43158;51.026;18.190;2023-05-10T07:08:32;3.70;;;3.10;;
57319;SDS011;43158;51.026;18.190;2023-05-10T07:11:01;3.50;;;3.10;;
57319;SDS011;43158;51.026;18.190;2023-05-10T07:13:29;3.50;;;2.90;;
57319;SDS011;43158;51.026;18.190;2023-05-10T07:18:24;3.10;;;2.70;;
57319;SDS011;43158;51.026;18.190;2023-05-10T07:20:51;5.00;;;2.70;;
57319;SDS011;43158;51.026;18.190;2023-05-10T07:23:18;3.60;;;2.70;;
57319;SDS011;43158;51.026;18.190;2023-05-10T07:25:46;5.30;;;2.60;;
57319;SDS011;43158;51.026;18.190;2023-05-10T07:28:17;3.60;;;2.50;;
57319;SDS011;43158;51.026;18.190;2023-05-10T07:30:45;2.50;;;2.20;;
57319;SDS011;43158;51.026;18.190;2023-05-10T07:33:13;4.00;;;2.70;;
57319;SDS011;43158;51.026;18.190;2023-05-10T07:35:40;2.80;;;2.50;;
57319;SDS011;43158;51.026;18.190;2023-05-10T07:38:07;3.30;;;2.30;;
57319;SDS011;43158;51.026;18.190;2023-05-10T07:40:34;4.50;;;2.00;;
57319;SDS011;43158;51.026;18.190;2023-05-10T07:43:01;5.00;;;2.50;;
57319;SDS011;43158;51.026;18.190;2023-05-10T07:45:28;3.20;;;2.60;;
57319;SDS011;43158;51.026;18.190;2023-05-10T07:47:55;3.40;;;2.60;;
57319;SDS011;43158;51.026;18.190;2023-05-10T07:50:22;2.60;;;2.30;;
57319;SDS011;43158;51.026;18.190;2023-05-10T07:52:50;3.90;;;2.40;;
57319;SDS011;43158;51.026;18.190;2023-05-10T07:55:19;2.90;;;2.40;;
57319;SDS011;43158;51.026;18.190;2023-05-10T07:57:51;3.00;;;2.60;;
57319;SDS011;43158;51.026;18.190;2023-05-10T08:00:18;3.20;;;2.90;;
57319;SDS011;43158;51.026;18.190;2023-05-10T08:02:47;5.10;;;2.50;;
57319;SDS011;43158;51.026;18.190;2023-05-10T08:05:14;3.10;;;2.20;;
57319;SDS011;43158;51.026;18.190;2023-05-10T08:07:41;5.60;;;3.00;;
57319;SDS011;43158;51.026;18.190;2023-05-10T08:10:08;2.90;;;2.70;;
57319;SDS011;43158;51.026;18.190;2023-05-10T08:12:37;2.80;;;2.30;;
57319;SDS011;43158;51.026;18.190;2023-05-10T08:15:06;4.90;;;2.60;;
57319;SDS011;43158;51.026;18.190;2023-05-10T08:17:35;3.00;;;2.40;;
57319;SDS011;43158;51.026;18.190;2023-05-10T08:20:03;2.90;;;2.10;;
57319;SDS011;43158;51.026;18.190;2023-05-10T08:22:30;3.10;;;2.00;;
57319;SDS011;43158;51.026;18.190;2023-05-10T08:24:57;2.10;;;1.80;;
57319;SDS011;43158;51.026;18.190;2023-05-10T08:27:24;2.40;;;2.10;;
57319;SDS011;43158;51.026;18.190;2023-05-10T08:29:51;3.30;;;2.40;;
57319;SDS011;43158;51.026;18.190;2023-05-10T08:32:18;3.10;;;2.10;;
57319;SDS011;43158;51.026;18.190;2023-05-10T08:34:44;3.50;;;2.10;;
57319;SDS011;43158;51.026;18.190;2023-05-10T08:37:11;3.80;;;2.50;;
57319;SDS011;43158;51.026;18.190;2023-05-10T08:39:38;3.80;;;2.20;;
57319;SDS011;43158;51.026;18.190;2023-05-10T08:42:05;3.00;;;2.30;;
57319;SDS011;43158;51.026;18.190;2023-05-10T08:44:34;2.00;;;1.80;;
57319;SDS011;43158;51.026;18.190;2023-05-10T08:47:05;2.70;;;2.10;;
57319;SDS011;43158;51.026;18.190;2023-05-10T08:49:32;4.30;;;2.20;;
57319;SDS011;43158;51.026;18.190;2023-05-10T08:52:03;2.90;;;2.30;;
57319;SDS011;43158;51.026;18.190;2023-05-10T08:54:31;3.50;;;2.10;;
57319;SDS011;43158;51.026;18.190;2023-05-10T08:56:59;1.90;;;1.60;;
57319;SDS011;43158;51.026;18.190;2023-05-10T08:59:26;2.50;;;1.80;;
57319;SDS011;43158;51.026;18.190;2023-05-10T09:01:55;3.10;;;2.20;;
57319;SDS011;43158;51.026;18.190;2023-05-10T09:04:28;4.60;;;2.10;;
57319;SDS011;43158;51.026;18.190;2023-05-10T09:06:56;3.60;;;2.20;;
57319;SDS011;43158;51.026;18.190;2023-05-10T09:09:23;3.90;;;2.30;;
57319;SDS011;43158;51.026;18.190;2023-05-10T09:11:51;4.90;;;2.50;;
57319;SDS011;43158;51.026;18.190;2023-05-10T09:14:18;2.20;;;1.90;;
57319;SDS011;43158;51.026;18.190;2023-05-10T09:16:47;3.00;;;2.30;;
57319;SDS011;43158;51.026;18.190;2023-05-10T09:19:21;5.30;;;2.40;;
57319;SDS011;43158;51.026;18.190;2023-05-10T09:21:48;4.80;;;2.20;;
57319;SDS011;43158;51.026;18.190;2023-05-10T09:24:15;5.00;;;2.00;;
57319;SDS011;43158;51.026;18.190;2023-05-10T09:26:48;3.20;;;2.20;;
57319;SDS011;43158;51.026;18.190;2023-05-10T09:29:16;2.40;;;2.10;;
57319;SDS011;43158;51.026;18.190;2023-05-10T09:31:45;2.50;;;2.30;;
57319;SDS011;43158;51.026;18.190;2023-05-10T09:34:21;2.10;;;1.90;;
57319;SDS011;43158;51.026;18.190;2023-05-10T09:36:56;3.90;;;2.20;;
57319;SDS011;43158;51.026;18.190;2023-05-10T09:39:30;11.10;;;3.00;;
57319;SDS011;43158;51.026;18.190;2023-05-10T09:41:57;2.40;;;2.10;;
57319;SDS011;43158;51.026;18.190;2023-05-10T09:44:34;2.30;;;2.10;;
57319;SDS011;43158;51.026;18.190;2023-05-10T09:47:02;3.40;;;2.20;;
57319;SDS011;43158;51.026;18.190;2023-05-10T09:49:33;5.40;;;3.10;;
57319;SDS011;43158;51.026;18.190;2023-05-10T09:52:04;4.20;;;2.50;;
57319;SDS011;43158;51.026;18.190;2023-05-10T09:54:36;3.30;;;2.00;;
57319;SDS011;43158;51.026;18.190;2023-05-10T09:57:03;4.50;;;2.40;;
57319;SDS011;43158;51.026;18.190;2023-05-10T09:59:29;3.10;;;2.30;;
57319;SDS011;43158;51.026;18.190;2023-05-10T10:01:56;4.60;;;2.90;;
57319;SDS011;43158;51.026;18.190;2023-05-10T10:04:23;5.70;;;2.60;;
57319;SDS011;43158;51.026;18.190;2023-05-10T10:06:59;5.70;;;2.00;;
57319;SDS011;43158;51.026;18.190;2023-05-10T10:09:30;3.40;;;2.30;;
57319;SDS011;43158;51.026;18.190;2023-05-10T10:11:57;4.20;;;2.20;;
57319;SDS011;43158;51.026;18.190;2023-05-10T10:14:24;3.90;;;2.40;;
57319;SDS011;43158;51.026;18.190;2023-05-10T10:16:50;2.80;;;2.00;;
57319;SDS011;43158;51.026;18.190;2023-05-10T10:19:17;2.80;;;2.40;;
57319;SDS011;43158;51.026;18.190;2023-05-10T10:21:44;2.60;;;2.40;;
57319;SDS011;43158;51.026;18.190;2023-05-10T10:24:10;4.70;;;2.90;;
57319;SDS011;43158;51.026;18.190;2023-05-10T10:26:36;2.50;;;2.30;;
57319;SDS011;43158;51.026;18.190;2023-05-10T10:29:17;7.90;;;2.30;;
57319;SDS011;43158;51.026;18.190;2023-05-10T10:31:51;2.20;;;2.00;;
57319;SDS011;43158;51.026;18.190;2023-05-10T10:34:29;4.50;;;2.10;;
57319;SDS011;43158;51.026;18.190;2023-05-10T10:36:58;3.70;;;2.30;;
57319;SDS011;43158;51.026;18.190;2023-05-10T10:39:30;3.90;;;2.60;;
57319;SDS011;43158;51.026;18.190;2023-05-10T10:41:57;3.80;;;2.50;;
57319;SDS011;43158;51.026;18.190;2023-05-10T10:44:24;2.30;;;2.10;;
57319;SDS011;43158;51.026;18.190;2023-05-10T10:52:27;3.00;;;2.10;;
57319;SDS011;43158;51.026;18.190;2023-05-10T10:57:31;3.10;;;2.40;;
57319;SDS011;43158;51.026;18.190;2023-05-10T11:00:19;3.10;;;2.40;;
57319;SDS011;43158;51.026;18.190;2023-05-10T11:02:57;4.90;;;2.30;;
57319;SDS011;43158;51.026;18.190;2023-05-10T11:05:38;4.50;;;2.50;;
57319;SDS011;43158;51.026;18.190;2023-05-10T11:08:25;2.10;;;1.90;;
57319;SDS011;43158;51.026;18.190;2023-05-10T11:13:27;3.60;;;2.70;;
57319;SDS011;43158;51.026;18.190;2023-05-10T11:18:53;4.60;;;2.70;;
57319;SDS011;43158;51.026;18.190;2023-05-10T11:21:29;2.40;;;2.10;;
57319;SDS011;43158;51.026;18.190;2023-05-10T11:24:09;2.20;;;2.00;;
57319;SDS011;43158;51.026;18.190;2023-05-10T11:26:40;2.90;;;2.00;;
57319;SDS011;43158;51.026;18.190;2023-05-10T11:29:08;3.40;;;2.10;;
57319;SDS011;43158;51.026;18.190;2023-05-10T11:31:35;2.20;;;2.00;;
57319;SDS011;43158;51.026;18.190;2023-05-10T11:37:14;2.70;;;2.50;;
57319;SDS011;43158;51.026;18.190;2023-05-10T11:39:45;2.60;;;2.30;;
57319;SDS011;43158;51.026;18.190;2023-05-10T11:42:15;2.70;;;2.00;;
57319;SDS011;43158;51.026;18.190;2023-05-10T11:44:44;2.60;;;2.30;;
57319;SDS011;43158;51.026;18.190;2023-05-10T11:47:12;3.50;;;1.90;;
57319;SDS011;43158;51.026;18.190;2023-05-10T11:49:39;3.20;;;2.40;;
57319;SDS011;43158;51.026;18.190;2023-05-10T11:52:09;3.60;;;2.50;;
57319;SDS011;43158;51.026;18.190;2023-05-10T11:54:36;2.80;;;2.30;;
57319;SDS011;43158;51.026;18.190;2023-05-10T11:57:03;5.00;;;3.10;;
57319;SDS011;43158;51.026;18.190;2023-05-10T11:59:29;4.10;;;2.20;;
57319;SDS011;43158;51.026;18.190;2023-05-10T12:01:56;5.00;;;2.30;;
57319;SDS011;43158;51.026;18.190;2023-05-10T12:04:24;6.10;;;2.70;;
57319;SDS011;43158;51.026;18.190;2023-05-10T12:06:52;4.40;;;1.90;;
57319;SDS011;43158;51.026;18.190;2023-05-10T12:09:19;4.50;;;2.30;;
57319;SDS011;43158;51.026;18.190;2023-05-10T12:11:47;2.80;;;2.40;;
57319;SDS011;43158;51.026;18.190;2023-05-10T12:14:14;2.70;;;2.10;;
57319;SDS011;43158;51.026;18.190;2023-05-10T12:16:43;4.80;;;2.30;;
57319;SDS011;43158;51.026;18.190;2023-05-10T12:19:11;2.20;;;1.90;;
57319;SDS011;43158;51.026;18.190;2023-05-10T12:21:38;2.50;;;2.10;;
57319;SDS011;43158;51.026;18.190;2023-05-10T12:24:04;2.10;;;2.00;;
57319;SDS011;43158;51.026;18.190;2023-05-10T12:26:31;3.20;;;2.20;;
57319;SDS011;43158;51.026;18.190;2023-05-10T12:29:12;2.20;;;1.70;;
57319;SDS011;43158;51.026;18.190;2023-05-10T12:31:52;3.30;;;2.30;;
57319;SDS011;43158;51.026;18.190;2023-05-10T12:34:33;3.80;;;2.00;;
57319;SDS011;43158;51.026;18.190;2023-05-10T12:37:05;2.00;;;1.60;;
57319;SDS011;43158;51.026;18.190;2023-05-10T12:42:08;4.30;;;2.40;;
57319;SDS011;43158;51.026;18.190;2023-05-10T12:44:36;5.10;;;2.00;;
57319;SDS011;43158;51.026;18.190;2023-05-10T12:47:06;3.00;;;2.00;;
57319;SDS011;43158;51.026;18.190;2023-05-10T12:49:34;3.90;;;2.00;;
57319;SDS011;43158;51.026;18.190;2023-05-10T12:52:01;3.30;;;2.10;;
57319;SDS011;43158;51.026;18.190;2023-05-10T12:54:28;4.00;;;2.00;;
57319;SDS011;43158;51.026;18.190;2023-05-10T12:56:55;3.50;;;1.80;;
57319;SDS011;43158;51.026;18.190;2023-05-10T12:59:22;1.80;;;1.60;;
57319;SDS011;43158;51.026;18.190;2023-05-10T13:01:49;2.20;;;1.90;;
57319;SDS011;43158;51.026;18.190;2023-05-10T13:04:15;5.10;;;2.40;;
57319;SDS011;43158;51.026;18.190;2023-05-10T13:06:42;3.50;;;2.20;;
57319;SDS011;43158;51.026;18.190;2023-05-10T13:09:09;4.10;;;2.30;;
57319;SDS011;43158;51.026;18.190;2023-05-10T13:11:36;2.90;;;2.40;;
57319;SDS011;43158;51.026;18.190;2023-05-10T13:14:07;2.60;;;2.20;;
57319;SDS011;43158;51.026;18.190;2023-05-10T13:16:34;4.50;;;2.10;;
57319;SDS011;43158;51.026;18.190;2023-05-10T13:19:01;3.50;;;2.10;;
57319;SDS011;43158;51.026;18.190;2023-05-10T13:21:28;3.90;;;2.00;;
57319;SDS011;43158;51.026;18.190;2023-05-10T13:23:56;7.70;;;2.60;;
57319;SDS011;43158;51.026;18.190;2023-05-10T13:26:24;2.60;;;2.00;;
57319;SDS011;43158;51.026;18.190;2023-05-10T13:28:54;3.80;;;2.40;;
57319;SDS011;43158;51.026;18.190;2023-05-10T13:31:21;4.50;;;2.10;;
57319;SDS011;43158;51.026;18.190;2023-05-10T13:33:49;2.60;;;2.00;;
57319;SDS011;43158;51.026;18.190;2023-05-10T13:36:15;2.30;;;1.90;;
57319;SDS011;43158;51.026;18.190;2023-05-10T13:38:42;2.00;;;1.80;;
57319;SDS011;43158;51.026;18.190;2023-05-10T13:41:08;1.90;;;1.60;;
57319;SDS011;43158;51.026;18.190;2023-05-10T13:43:35;2.10;;;1.90;;
57319;SDS011;43158;51.026;18.190;2023-05-10T13:46:02;2.80;;;1.70;;
57319;SDS011;43158;51.026;18.190;2023-05-10T13:48:28;3.40;;;2.20;;
57319;SDS011;43158;51.026;18.190;2023-05-10T13:50:54;3.00;;;1.90;;
57319;SDS011;43158;51.026;18.190;2023-05-10T13:53:20;3.60;;;2.00;;
57319;SDS011;43158;51.026;18.190;2023-05-10T13:55:47;3.00;;;2.00;;
57319;SDS011;43158;51.026;18.190;2023-05-10T13:58:14;2.90;;;1.80;;
57319;SDS011;43158;51.026;18.190;2023-05-10T14:00:40;4.50;;;2.20;;
57319;SDS011;43158;51.026;18.190;2023-05-10T14:03:06;2.60;;;2.30;;
57319;SDS011;43158;51.026;18.190;2023-05-10T14:05:34;4.90;;;2.10;;
57319;SDS011;43158;51.026;18.190;2023-05-10T14:08:00;2.60;;;2.30;;
57319;SDS011;43158;51.026;18.190;2023-05-10T14:10:26;5.50;;;1.60;;
57319;SDS011;43158;51.026;18.190;2023-05-10T14:12:53;3.80;;;2.10;;
57319;SDS011;43158;51.026;18.190;2023-05-10T14:15:20;4.70;;;2.30;;
57319;SDS011;43158;51.026;18.190;2023-05-10T14:17:48;4.40;;;2.00;;
57319;SDS011;43158;51.026;18.190;2023-05-10T14:20:14;2.70;;;2.20;;
57319;SDS011;43158;51.026;18.190;2023-05-10T14:22:42;4.20;;;1.90;;
57319;SDS011;43158;51.026;18.190;2023-05-10T14:25:09;4.20;;;2.30;;
57319;SDS011;43158;51.026;18.190;2023-05-10T14:27:36;2.10;;;1.90;;
57319;SDS011;43158;51.026;18.190;2023-05-10T14:30:05;3.00;;;2.20;;
57319;SDS011;43158;51.026;18.190;2023-05-10T14:32:32;2.80;;;1.90;;
57319;SDS011;43158;51.026;18.190;2023-05-10T14:34:59;1.90;;;1.80;;
57319;SDS011;43158;51.026;18.190;2023-05-10T14:37:26;2.90;;;2.40;;
57319;SDS011;43158;51.026;18.190;2023-05-10T14:39:52;5.80;;;2.40;;
57319;SDS011;43158;51.026;18.190;2023-05-10T14:42:19;4.40;;;2.50;;
57319;SDS011;43158;51.026;18.190;2023-05-10T14:44:45;3.70;;;2.10;;
57319;SDS011;43158;51.026;18.190;2023-05-10T14:47:11;3.90;;;2.30;;
57319;SDS011;43158;51.026;18.190;2023-05-10T14:49:38;4.00;;;2.50;;
57319;SDS011;43158;51.026;18.190;2023-05-10T14:52:04;3.50;;;2.40;;
57319;SDS011;43158;51.026;18.190;2023-05-10T14:54:30;2.70;;;2.40;;
57319;SDS011;43158;51.026;18.190;2023-05-10T14:56:56;4.00;;;2.70;;
57319;SDS011;43158;51.026;18.190;2023-05-10T14:59:22;3.90;;;2.20;;
57319;SDS011;43158;51.026;18.190;2023-05-10T15:01:48;2.20;;;2.00;;
57319;SDS011;43158;51.026;18.190;2023-05-10T15:04:14;2.90;;;2.10;;
57319;SDS011;43158;51.026;18.190;2023-05-10T15:06:41;4.50;;;2.40;;
57319;SDS011;43158;51.026;18.190;2023-05-10T15:09:08;2.70;;;2.30;;
57319;SDS011;43158;51.026;18.190;2023-05-10T15:11:34;2.60;;;2.00;;
57319;SDS011;43158;51.026;18.190;2023-05-10T15:14:00;3.00;;;1.80;;
57319;SDS011;43158;51.026;18.190;2023-05-10T15:16:27;1.90;;;1.80;;